createdAt,value
2022-10-28T00:00:13.354Z,344
2022-10-28T00:01:22.517Z,343
2022-10-28T00:02:31.701Z,342
2022-10-28T00:03:40.872Z,343
2022-10-28T00:04:50.040Z,343
2022-10-28T00:05:59.231Z,342
2022-10-28T00:07:08.382Z,342
2022-10-28T00:08:17.558Z,340
2022-10-28T00:09:26.728Z,342
2022-10-28T00:10:34.920Z,342
2022-10-28T00:11:44.091Z,342
2022-10-28T00:12:53.259Z,342
2022-10-28T00:14:02.431Z,342
2022-10-28T00:15:11.601Z,343
2022-10-28T00:16:20.786Z,342
2022-10-28T00:17:29.956Z,341
2022-10-28T00:18:38.154Z,342
2022-10-28T00:19:46.336Z,342
2022-10-28T00:20:55.505Z,341
2022-10-28T00:22:04.691Z,341
2022-10-28T00:23:12.871Z,343
2022-10-28T00:24:21.060Z,341
2022-10-28T00:25:30.231Z,342
2022-10-28T00:26:39.414Z,344
2022-10-28T00:27:48.565Z,342
2022-10-28T00:28:57.756Z,343
2022-10-28T00:30:06.930Z,342
2022-10-28T00:31:16.087Z,342
2022-10-28T00:32:25.269Z,342
2022-10-28T00:33:34.431Z,342
2022-10-28T00:34:43.617Z,342
2022-10-28T00:35:52.776Z,343
2022-10-28T00:37:01.952Z,342
2022-10-28T00:38:11.127Z,342
2022-10-28T00:39:19.305Z,342
2022-10-28T00:40:28.486Z,342
2022-10-28T00:41:37.665Z,342
2022-10-28T00:42:46.845Z,342
2022-10-28T00:43:56.048Z,342
2022-10-28T00:45:05.175Z,342
2022-10-28T00:46:14.350Z,72
2022-10-28T00:47:22.541Z,72
2022-10-28T00:48:31.715Z,72
2022-10-28T00:49:39.916Z,76
2022-10-28T00:50:48.127Z,72
2022-10-28T00:51:57.262Z,73
2022-10-28T00:53:06.436Z,72
2022-10-28T00:54:15.608Z,77
2022-10-28T00:55:24.792Z,74
2022-10-28T00:56:33.960Z,75
2022-10-28T00:57:43.120Z,78
2022-10-28T00:58:52.303Z,87
2022-10-28T01:00:01.479Z,87
2022-10-28T01:01:10.644Z,87
2022-10-28T01:02:19.820Z,87
2022-10-28T01:03:29.004Z,87
2022-10-28T01:04:38.267Z,87
2022-10-28T01:05:47.355Z,89
2022-10-28T01:06:55.531Z,86
2022-10-28T01:08:04.702Z,88
2022-10-28T01:09:13.873Z,97
2022-10-28T01:10:23.034Z,96
2022-10-28T01:11:32.203Z,96
2022-10-28T01:12:41.382Z,97
2022-10-28T01:13:49.578Z,97
2022-10-28T01:14:57.761Z,97
2022-10-28T01:16:06.951Z,96
2022-10-28T01:17:15.133Z,97
2022-10-28T01:18:23.313Z,96
2022-10-28T01:19:32.495Z,96
2022-10-28T01:20:41.655Z,96
2022-10-28T01:21:50.852Z,96
2022-10-28T01:23:00.005Z,96
2022-10-28T01:24:09.184Z,96
2022-10-28T01:25:18.346Z,97
2022-10-28T01:26:27.518Z,97
2022-10-28T01:27:36.752Z,96
2022-10-28T01:28:45.874Z,95
2022-10-28T01:31:04.209Z,94
2022-10-28T01:32:13.382Z,94
2022-10-28T01:33:21.591Z,104
2022-10-28T01:34:29.796Z,104
2022-10-28T01:35:39.007Z,97
2022-10-28T01:36:48.143Z,102
2022-10-28T01:37:57.280Z,103
2022-10-28T01:39:06.488Z,102
2022-10-28T01:40:15.653Z,101
2022-10-28T01:41:24.789Z,99
2022-10-28T01:42:32.985Z,100
2022-10-28T01:43:41.175Z,148
2022-10-28T01:44:50.356Z,144
2022-10-28T01:45:58.546Z,143
2022-10-28T01:47:06.820Z,145
2022-10-28T01:48:15.904Z,145
2022-10-28T01:49:25.085Z,149
2022-10-28T01:50:34.249Z,151
2022-10-28T01:51:43.422Z,119
2022-10-28T01:52:52.597Z,128
2022-10-28T01:54:01.783Z,159
2022-10-28T01:55:10.938Z,145
2022-10-28T01:56:20.112Z,144
2022-10-28T01:57:29.308Z,129
2022-10-28T01:58:38.455Z,146
2022-10-28T01:59:47.632Z,146
2022-10-28T02:00:56.808Z,147
2022-10-28T02:02:04.986Z,155
2022-10-28T02:03:14.161Z,145
2022-10-28T02:04:23.331Z,145
2022-10-28T02:05:32.506Z,127
2022-10-28T02:06:41.687Z,127
2022-10-28T02:07:50.875Z,86
2022-10-28T02:09:00.024Z,100
2022-10-28T02:10:08.228Z,99
2022-10-28T02:11:17.388Z,98
2022-10-28T02:12:25.582Z,156
2022-10-28T02:13:33.767Z,149
2022-10-28T02:14:42.937Z,148
2022-10-28T02:15:52.115Z,148
2022-10-28T02:17:01.290Z,150
2022-10-28T02:18:10.459Z,147
2022-10-28T02:19:19.826Z,148
2022-10-28T02:20:28.801Z,148
2022-10-28T02:21:37.990Z,148
2022-10-28T02:22:47.157Z,149
2022-10-28T02:23:56.323Z,148
2022-10-28T02:25:05.493Z,148
2022-10-28T02:26:14.653Z,147
2022-10-28T02:27:23.847Z,149
2022-10-28T02:28:33.016Z,143
2022-10-28T02:29:41.195Z,143
2022-10-28T02:30:50.369Z,143
2022-10-28T02:31:59.566Z,144
2022-10-28T02:33:08.772Z,142
2022-10-28T02:34:17.889Z,142
2022-10-28T02:35:27.056Z,126
2022-10-28T02:36:35.292Z,137
2022-10-28T02:37:43.456Z,138
2022-10-28T02:38:52.613Z,137
2022-10-28T02:40:00.828Z,140
2022-10-28T02:41:10.035Z,141
2022-10-28T02:42:18.168Z,140
2022-10-28T02:43:27.336Z,142
2022-10-28T02:44:36.547Z,141
2022-10-28T02:45:45.685Z,141
2022-10-28T02:46:54.856Z,141
2022-10-28T02:48:04.043Z,141
2022-10-28T02:49:13.201Z,142
2022-10-28T02:50:22.368Z,142
2022-10-28T02:51:31.551Z,142
2022-10-28T02:52:40.726Z,141
2022-10-28T02:53:49.910Z,142
2022-10-28T02:54:59.062Z,140
2022-10-28T02:56:08.240Z,141
2022-10-28T02:57:16.423Z,142
2022-10-28T02:58:25.594Z,142
2022-10-28T02:59:34.762Z,141
2022-10-28T03:00:43.936Z,140
2022-10-28T03:01:53.118Z,143
2022-10-28T03:03:02.276Z,142
2022-10-28T03:04:10.478Z,140
2022-10-28T03:05:18.667Z,141
2022-10-28T03:06:27.849Z,142
2022-10-28T03:07:37.025Z,141
2022-10-28T03:08:45.198Z,140
2022-10-28T03:09:54.377Z,141
2022-10-28T03:11:02.576Z,140
2022-10-28T03:12:11.791Z,143
2022-10-28T03:13:20.967Z,142
2022-10-28T03:14:30.089Z,143
2022-10-28T03:15:39.257Z,141
2022-10-28T03:16:48.424Z,140
2022-10-28T03:17:57.603Z,141
2022-10-28T03:19:06.777Z,140
2022-10-28T03:20:15.987Z,145
2022-10-28T03:21:25.117Z,145
2022-10-28T03:22:34.324Z,145
2022-10-28T03:23:43.459Z,147
2022-10-28T03:24:52.633Z,160
2022-10-28T03:27:09.986Z,161
2022-10-28T03:28:19.167Z,162
2022-10-28T03:29:28.339Z,161
2022-10-28T03:30:37.505Z,162
2022-10-28T03:31:46.681Z,160
2022-10-28T03:32:55.886Z,141
2022-10-28T03:34:05.025Z,141
2022-10-28T03:35:13.226Z,140
2022-10-28T03:36:21.410Z,141
2022-10-28T03:37:30.583Z,142
2022-10-28T03:38:39.797Z,144
2022-10-28T03:39:47.949Z,143
2022-10-28T03:40:56.140Z,144
2022-10-28T03:42:05.419Z,145
2022-10-28T03:43:14.485Z,143
2022-10-28T03:44:23.651Z,145
2022-10-28T03:45:32.819Z,145
2022-10-28T03:46:41.996Z,144
2022-10-28T03:47:51.180Z,144
2022-10-28T03:49:00.343Z,143
2022-10-28T03:50:09.559Z,144
2022-10-28T03:51:18.689Z,143
2022-10-28T03:52:27.860Z,144
2022-10-28T03:53:37.044Z,145
2022-10-28T03:54:46.203Z,142
2022-10-28T03:55:54.393Z,145
2022-10-28T03:57:03.600Z,145
2022-10-28T03:58:12.739Z,144
2022-10-28T03:59:21.920Z,144
2022-10-28T04:00:31.093Z,144
2022-10-28T04:01:40.260Z,143
2022-10-28T04:02:49.431Z,143
2022-10-28T04:03:57.628Z,146
2022-10-28T04:05:05.812Z,144
2022-10-28T04:06:14.035Z,143
2022-10-28T04:07:22.186Z,144
2022-10-28T04:08:31.359Z,140
2022-10-28T04:09:40.537Z,144
2022-10-28T04:10:49.722Z,144
2022-10-28T04:11:58.883Z,144
2022-10-28T04:13:08.054Z,145
2022-10-28T04:14:17.231Z,145
2022-10-28T04:15:26.395Z,146
2022-10-28T04:16:35.566Z,142
2022-10-28T04:17:44.735Z,146
2022-10-28T04:18:53.954Z,145
2022-10-28T04:20:03.087Z,142
2022-10-28T04:21:12.268Z,144
2022-10-28T04:22:21.480Z,144
2022-10-28T04:23:29.653Z,144
2022-10-28T04:24:38.785Z,146
2022-10-28T04:25:47.958Z,146
2022-10-28T04:26:57.146Z,142
2022-10-28T04:28:06.310Z,145
2022-10-28T04:29:15.525Z,144
2022-10-28T04:30:23.682Z,145
2022-10-28T04:31:31.862Z,143
2022-10-28T04:32:41.040Z,143
2022-10-28T04:33:49.227Z,142
2022-10-28T04:34:57.422Z,144
2022-10-28T04:36:06.592Z,145
2022-10-28T04:37:15.807Z,145
2022-10-28T04:38:24.963Z,142
2022-10-28T04:39:34.128Z,142
2022-10-28T04:40:43.277Z,144
2022-10-28T04:41:52.458Z,146
2022-10-28T04:43:01.620Z,145
2022-10-28T04:44:10.785Z,144
2022-10-28T04:45:19.959Z,144
2022-10-28T04:46:29.143Z,150
2022-10-28T04:47:38.306Z,146
2022-10-28T04:48:47.477Z,144
2022-10-28T04:49:56.651Z,144
2022-10-28T04:51:04.851Z,141
2022-10-28T04:52:14.010Z,143
2022-10-28T04:53:23.191Z,145
2022-10-28T04:54:32.360Z,146
2022-10-28T04:55:41.540Z,145
2022-10-28T04:56:50.710Z,144
2022-10-28T04:57:59.876Z,144
2022-10-28T04:59:09.046Z,143
2022-10-28T05:00:18.216Z,145
2022-10-28T05:01:27.383Z,144
2022-10-28T05:02:36.568Z,143
2022-10-28T05:03:45.738Z,142
2022-10-28T05:04:54.907Z,143
2022-10-28T05:06:03.099Z,145
2022-10-28T05:07:12.264Z,143
2022-10-28T05:08:20.463Z,145
2022-10-28T05:09:28.654Z,144
2022-10-28T05:10:37.824Z,144
2022-10-28T05:11:46.991Z,144
2022-10-28T05:12:55.186Z,143
2022-10-28T05:14:03.384Z,144
2022-10-28T05:15:12.544Z,143
2022-10-28T05:16:21.712Z,145
2022-10-28T05:17:30.897Z,144
2022-10-28T05:18:40.060Z,147
2022-10-28T05:19:49.229Z,146
2022-10-28T05:20:58.414Z,145
2022-10-28T05:22:07.583Z,146
2022-10-28T05:23:16.797Z,145
2022-10-28T05:24:25.961Z,145
2022-10-28T05:25:34.112Z,143
2022-10-28T05:26:43.293Z,148
2022-10-28T05:27:52.457Z,151
2022-10-28T05:29:01.631Z,151
2022-10-28T05:30:10.865Z,151
2022-10-28T05:31:20.050Z,150
2022-10-28T05:32:29.147Z,150
2022-10-28T05:33:38.320Z,149
2022-10-28T05:34:47.655Z,152
2022-10-28T05:35:56.664Z,148
2022-10-28T05:37:05.879Z,154
2022-10-28T05:38:15.014Z,176
2022-10-28T05:39:23.206Z,175
2022-10-28T05:40:31.395Z,176
2022-10-28T05:41:40.559Z,178
2022-10-28T05:42:49.827Z,177
2022-10-28T05:45:07.098Z,176
2022-10-28T05:46:15.294Z,176
2022-10-28T05:47:23.479Z,179
2022-10-28T05:48:32.651Z,201
2022-10-28T05:49:41.830Z,196
2022-10-28T05:50:50.994Z,199
2022-10-28T05:52:00.187Z,196
2022-10-28T05:53:09.381Z,196
2022-10-28T05:54:18.525Z,198
2022-10-28T05:55:27.685Z,196
2022-10-28T05:56:36.856Z,196
2022-10-28T05:57:46.078Z,196
2022-10-28T05:58:55.214Z,197
2022-10-28T06:00:04.385Z,196
2022-10-28T06:02:22.749Z,199
2022-10-28T06:03:30.908Z,196
2022-10-28T06:04:40.078Z,196
2022-10-28T06:05:49.246Z,196
2022-10-28T06:06:58.420Z,196
2022-10-28T06:08:07.615Z,198
2022-10-28T06:09:16.774Z,201
2022-10-28T06:10:25.948Z,202
2022-10-28T06:11:33.623Z,200
2022-10-28T06:12:42.772Z,202
2022-10-28T06:13:51.925Z,203
2022-10-28T06:15:01.165Z,201
2022-10-28T06:16:10.262Z,201
2022-10-28T06:17:19.435Z,202
2022-10-28T06:18:27.625Z,200
2022-10-28T06:19:36.805Z,203
2022-10-28T06:20:45.969Z,201
2022-10-28T06:21:55.152Z,203
2022-10-28T06:23:04.335Z,213
2022-10-28T06:24:13.497Z,216
2022-10-28T06:25:22.689Z,217
2022-10-28T06:26:31.840Z,216
2022-10-28T06:27:41.011Z,220
2022-10-28T06:28:50.196Z,216
2022-10-28T06:29:59.375Z,217
2022-10-28T06:31:08.582Z,216
2022-10-28T06:32:17.710Z,217
2022-10-28T06:33:26.901Z,217
2022-10-28T06:34:35.068Z,216
2022-10-28T06:35:44.244Z,214
2022-10-28T06:36:53.426Z,214
2022-10-28T06:38:02.589Z,216
2022-10-28T06:39:11.774Z,208
2022-10-28T06:40:21.000Z,209
2022-10-28T06:41:30.129Z,208
2022-10-28T06:42:39.338Z,210
2022-10-28T06:43:48.458Z,209
2022-10-28T06:44:57.630Z,211
2022-10-28T06:46:06.815Z,209
2022-10-28T06:47:17.497Z,210
2022-10-28T06:48:26.687Z,210
2022-10-28T06:49:34.852Z,209
2022-10-28T06:50:44.031Z,180
2022-10-28T06:51:53.213Z,178
2022-10-28T06:53:02.495Z,178
2022-10-28T06:54:11.544Z,180
2022-10-28T06:55:20.719Z,181
2022-10-28T06:56:29.893Z,177
2022-10-28T06:57:39.061Z,182
2022-10-28T06:58:48.240Z,182
2022-10-28T06:59:57.408Z,183
2022-10-28T07:01:06.605Z,183
2022-10-28T07:02:15.833Z,184
2022-10-28T07:03:24.948Z,183
2022-10-28T07:04:34.121Z,185
2022-10-28T07:05:42.311Z,182
2022-10-28T07:06:51.483Z,183
2022-10-28T07:08:00.646Z,183
2022-10-28T07:09:09.811Z,183
2022-10-28T07:10:18.985Z,185
2022-10-28T07:11:28.164Z,184
2022-10-28T07:12:37.416Z,184
2022-10-28T07:13:46.520Z,184
2022-10-28T07:14:55.712Z,184
2022-10-28T07:16:04.856Z,184
2022-10-28T07:17:14.036Z,183
2022-10-28T07:18:23.264Z,172
2022-10-28T07:19:32.371Z,333
2022-10-28T07:20:40.563Z,261
2022-10-28T07:21:49.733Z,229
2022-10-28T07:22:57.935Z,213
2022-10-28T07:24:06.117Z,186
2022-10-28T07:25:15.287Z,185
2022-10-28T07:26:24.472Z,181
2022-10-28T07:27:33.638Z,177
2022-10-28T07:28:42.812Z,169
2022-10-28T07:29:51.980Z,170
2022-10-28T07:31:01.172Z,169
2022-10-28T07:32:10.405Z,172
2022-10-28T07:33:18.529Z,171
2022-10-28T07:34:26.716Z,147
2022-10-28T07:35:35.875Z,155
2022-10-28T07:36:45.068Z,159
2022-10-28T07:37:54.252Z,160
2022-10-28T07:39:03.419Z,165
2022-10-28T07:40:12.579Z,149
2022-10-28T07:41:21.742Z,180
2022-10-28T07:42:30.925Z,170
2022-10-28T07:43:40.097Z,172
2022-10-28T07:44:49.265Z,159
2022-10-28T07:45:58.447Z,162
2022-10-28T07:47:07.612Z,162
2022-10-28T07:48:16.789Z,158
2022-10-28T07:49:24.966Z,144
2022-10-28T07:50:34.154Z,141
2022-10-28T07:51:43.318Z,167
2022-10-28T07:52:52.497Z,164
2022-10-28T07:54:01.664Z,164
2022-10-28T07:55:10.833Z,162
2022-10-28T07:56:20.049Z,143
2022-10-28T07:57:28.199Z,177
2022-10-28T07:58:36.443Z,155
2022-10-28T07:59:45.550Z,182
2022-10-28T08:00:53.743Z,164
2022-10-28T08:02:02.078Z,174
2022-10-28T08:03:11.103Z,160
2022-10-28T08:04:20.331Z,142
2022-10-28T08:05:29.446Z,168
2022-10-28T08:06:38.610Z,163
2022-10-28T08:07:47.794Z,146
2022-10-28T08:08:56.989Z,142
2022-10-28T08:10:06.158Z,160
2022-10-28T08:11:15.349Z,157
2022-10-28T08:12:24.467Z,164
2022-10-28T08:13:33.641Z,178
2022-10-28T08:14:42.791Z,165
2022-10-28T08:15:51.967Z,180
2022-10-28T08:17:00.144Z,160
2022-10-28T08:18:09.371Z,179
2022-10-28T08:19:18.495Z,182
2022-10-28T08:20:27.664Z,163
2022-10-28T08:21:36.841Z,165
2022-10-28T08:22:46.027Z,140
2022-10-28T08:23:55.179Z,151
2022-10-28T08:25:04.349Z,150
2022-10-28T08:26:13.536Z,136
2022-10-28T08:27:22.735Z,174
2022-10-28T08:28:31.926Z,144
2022-10-28T08:29:41.034Z,163
2022-10-28T08:30:50.213Z,146
2022-10-28T08:31:58.400Z,183
2022-10-28T08:33:07.608Z,149
2022-10-28T08:34:16.746Z,145
2022-10-28T08:35:25.923Z,185
2022-10-28T08:36:35.189Z,174
2022-10-28T08:37:44.267Z,148
2022-10-28T08:38:53.613Z,185
2022-10-28T08:40:02.644Z,151
2022-10-28T08:41:11.773Z,180
2022-10-28T08:42:20.950Z,185
2022-10-28T08:43:30.133Z,181
2022-10-28T08:44:39.292Z,192
2022-10-28T08:45:48.471Z,151
2022-10-28T08:46:56.666Z,149
2022-10-28T08:48:05.828Z,131
2022-10-28T08:49:15.009Z,163
2022-10-28T08:50:24.176Z,137
2022-10-28T08:51:33.353Z,190
2022-10-28T08:52:42.519Z,156
2022-10-28T08:53:51.703Z,157
2022-10-28T08:55:00.865Z,155
2022-10-28T08:56:10.077Z,149
2022-10-28T08:57:19.261Z,173
2022-10-28T08:58:28.374Z,148
2022-10-28T08:59:37.626Z,166
2022-10-28T09:00:46.722Z,165
2022-10-28T09:01:54.919Z,188
2022-10-28T09:03:04.084Z,169
2022-10-28T09:04:13.266Z,150
2022-10-28T09:05:22.425Z,163
2022-10-28T09:06:31.605Z,186
2022-10-28T09:07:40.788Z,120
2022-10-28T09:08:50.017Z,183
2022-10-28T09:09:59.109Z,185
2022-10-28T09:11:08.295Z,163
2022-10-28T09:12:17.526Z,181
2022-10-28T09:13:26.639Z,167
2022-10-28T09:14:35.812Z,169
2022-10-28T09:15:44.979Z,184
2022-10-28T09:16:53.169Z,196
2022-10-28T09:18:02.371Z,178
2022-10-28T09:19:11.510Z,168
2022-10-28T09:20:20.689Z,148
2022-10-28T09:21:29.874Z,155
2022-10-28T09:22:39.039Z,175
2022-10-28T09:23:48.209Z,132
2022-10-28T09:24:57.381Z,146
2022-10-28T09:26:06.559Z,145
2022-10-28T09:27:15.722Z,168
2022-10-28T09:28:24.914Z,118
2022-10-28T09:29:34.067Z,161
2022-10-28T09:30:43.241Z,163
2022-10-28T09:31:51.434Z,136
2022-10-28T09:33:00.623Z,144
2022-10-28T09:34:09.773Z,170
2022-10-28T09:35:18.971Z,152
2022-10-28T09:36:28.134Z,167
2022-10-28T09:38:46.472Z,180
2022-10-28T09:39:55.631Z,130
2022-10-28T09:41:04.804Z,172
2022-10-28T09:42:13.984Z,145
2022-10-28T09:43:23.143Z,151
2022-10-28T09:44:32.325Z,115
2022-10-28T09:45:41.501Z,164
2022-10-28T09:46:49.684Z,167
2022-10-28T09:47:58.851Z,162
2022-10-28T09:49:08.048Z,166
2022-10-28T09:50:17.231Z,174
2022-10-28T09:51:26.378Z,129
2022-10-28T09:52:35.547Z,111
2022-10-28T09:53:44.715Z,151
2022-10-28T09:54:53.885Z,150
2022-10-28T09:56:03.068Z,149
2022-10-28T09:57:12.223Z,193
2022-10-28T09:58:21.431Z,156
2022-10-28T09:59:30.593Z,132
2022-10-28T10:00:39.737Z,150
2022-10-28T10:01:47.940Z,139
2022-10-28T10:02:57.131Z,188
2022-10-28T10:04:06.323Z,160
2022-10-28T10:05:15.447Z,157
2022-10-28T10:06:24.626Z,154
2022-10-28T10:07:33.817Z,152
2022-10-28T10:09:52.135Z,174
2022-10-28T10:11:01.332Z,185
2022-10-28T10:12:10.485Z,173
2022-10-28T10:13:19.697Z,174
2022-10-28T10:14:28.823Z,157
2022-10-28T10:15:38.009Z,176
2022-10-28T10:16:46.201Z,138
2022-10-28T10:17:55.363Z,187
2022-10-28T10:19:04.533Z,182
2022-10-28T10:20:13.712Z,170
2022-10-28T10:21:22.881Z,156
2022-10-28T10:22:32.050Z,204
2022-10-28T10:23:41.220Z,150
2022-10-28T10:24:50.395Z,169
2022-10-28T10:25:59.564Z,176
2022-10-28T10:27:08.740Z,193
2022-10-28T10:28:17.902Z,170
2022-10-28T10:29:27.084Z,146
2022-10-28T10:30:36.260Z,144
2022-10-28T10:31:44.440Z,196
2022-10-28T10:32:53.612Z,135
2022-10-28T10:34:02.794Z,150
2022-10-28T10:35:11.962Z,124
2022-10-28T10:36:20.183Z,175
2022-10-28T10:37:28.344Z,138
2022-10-28T10:38:37.522Z,145
2022-10-28T10:39:46.698Z,171
2022-10-28T10:40:54.942Z,138
2022-10-28T10:42:03.066Z,142
2022-10-28T10:43:12.245Z,187
2022-10-28T10:44:21.419Z,183
2022-10-28T10:45:30.592Z,152
2022-10-28T10:46:39.828Z,146
2022-10-28T10:47:48.980Z,177
2022-10-28T10:48:58.097Z,161
2022-10-28T10:50:07.274Z,170
2022-10-28T10:51:16.444Z,173
2022-10-28T10:52:25.757Z,149
2022-10-28T10:53:34.828Z,150
2022-10-28T10:54:43.968Z,136
2022-10-28T10:55:53.133Z,174
2022-10-28T10:57:01.326Z,166
2022-10-28T10:58:10.495Z,185
2022-10-28T10:59:19.669Z,163
2022-10-28T11:00:28.840Z,181
2022-10-28T11:01:38.052Z,150
2022-10-28T11:02:47.186Z,127
2022-10-28T11:03:56.366Z,140
2022-10-28T11:05:04.553Z,170
2022-10-28T11:06:12.748Z,210
2022-10-28T11:07:21.909Z,187
2022-10-28T11:08:31.169Z,184
2022-10-28T11:09:40.248Z,155
2022-10-28T11:10:48.452Z,148
2022-10-28T11:11:56.651Z,163
2022-10-28T11:13:05.845Z,156
2022-10-28T11:14:15.002Z,162
2022-10-28T11:15:24.175Z,162
2022-10-28T11:16:33.329Z,176
2022-10-28T11:17:42.511Z,176
2022-10-28T11:18:51.680Z,162
2022-10-28T11:20:00.859Z,186
2022-10-28T11:21:10.015Z,215
2022-10-28T11:22:19.305Z,185
2022-10-28T11:23:28.375Z,169
2022-10-28T11:24:37.534Z,146
2022-10-28T11:25:46.705Z,162
2022-10-28T11:26:54.924Z,179
2022-10-28T11:28:04.087Z,188
2022-10-28T11:29:13.315Z,150
2022-10-28T11:30:22.404Z,167
2022-10-28T11:31:31.588Z,180
2022-10-28T11:32:40.759Z,154
2022-10-28T11:33:49.929Z,183
2022-10-28T11:34:59.093Z,214
2022-10-28T11:36:08.279Z,190
2022-10-28T11:37:17.446Z,156
2022-10-28T11:38:25.645Z,174
2022-10-28T11:39:33.826Z,194
2022-10-28T11:40:42.997Z,190
2022-10-28T11:41:51.201Z,155
2022-10-28T11:42:59.381Z,181
2022-10-28T11:44:08.574Z,178
2022-10-28T11:45:17.789Z,129
2022-10-28T11:46:26.890Z,137
2022-10-28T11:47:36.076Z,176
2022-10-28T11:48:45.256Z,167
2022-10-28T11:49:54.422Z,205
2022-10-28T11:51:03.584Z,184
2022-10-28T11:52:12.813Z,183
2022-10-28T11:53:21.919Z,175
2022-10-28T11:54:31.108Z,163
2022-10-28T11:55:40.276Z,190
2022-10-28T11:56:49.457Z,181
2022-10-28T11:57:57.641Z,166
2022-10-28T11:59:06.805Z,181
2022-10-28T12:00:16.003Z,137
2022-10-28T12:01:25.155Z,205
2022-10-28T12:02:34.347Z,170
2022-10-28T12:03:43.495Z,166
2022-10-28T12:04:52.790Z,179
2022-10-28T12:06:00.856Z,187
2022-10-28T12:07:09.062Z,147
2022-10-28T12:08:17.270Z,141
2022-10-28T12:09:25.429Z,185
2022-10-28T12:10:34.595Z,168
2022-10-28T12:11:43.799Z,146
2022-10-28T12:12:52.955Z,160
2022-10-28T12:14:02.125Z,180
2022-10-28T12:15:11.291Z,178
2022-10-28T12:16:20.463Z,173
2022-10-28T12:17:29.663Z,168
2022-10-28T12:18:38.802Z,129
2022-10-28T12:19:47.977Z,136
2022-10-28T12:22:06.324Z,146
2022-10-28T12:23:15.506Z,110
2022-10-28T12:24:23.811Z,142
2022-10-28T12:25:32.865Z,178
2022-10-28T12:26:42.081Z,140
2022-10-28T12:27:51.200Z,168
2022-10-28T12:29:00.370Z,172
2022-10-28T12:30:09.548Z,164
2022-10-28T12:31:18.721Z,149
2022-10-28T12:32:27.892Z,137
2022-10-28T12:33:36.088Z,167
2022-10-28T12:34:44.275Z,207
2022-10-28T12:35:53.452Z,187
2022-10-28T12:37:02.619Z,146
2022-10-28T12:38:11.816Z,156
2022-10-28T12:39:20.961Z,144
2022-10-28T12:40:29.163Z,169
2022-10-28T12:41:37.339Z,159
2022-10-28T12:42:46.535Z,189
2022-10-28T12:43:55.695Z,179
2022-10-28T12:45:04.861Z,144
2022-10-28T12:46:14.027Z,157
2022-10-28T12:47:23.227Z,194
2022-10-28T12:48:32.452Z,171
2022-10-28T12:49:41.560Z,190
2022-10-28T12:50:50.764Z,181
2022-10-28T12:51:59.937Z,130
2022-10-28T12:53:09.066Z,142
2022-10-28T12:54:18.246Z,157
2022-10-28T12:55:27.412Z,181
2022-10-28T12:56:36.584Z,170
2022-10-28T12:57:44.769Z,129
2022-10-28T12:58:53.981Z,140
2022-10-28T13:00:03.117Z,150
2022-10-28T13:01:12.292Z,149
2022-10-28T13:02:21.456Z,164
2022-10-28T13:03:30.686Z,160
2022-10-28T13:04:39.802Z,177
2022-10-28T13:05:48.995Z,152
2022-10-28T13:06:58.253Z,157
2022-10-28T13:08:06.401Z,150
2022-10-28T13:09:15.576Z,147
2022-10-28T13:10:24.693Z,174
2022-10-28T13:11:33.865Z,168
2022-10-28T13:12:43.063Z,162
2022-10-28T13:13:52.197Z,143
2022-10-28T13:15:01.379Z,196
2022-10-28T13:16:10.547Z,186
2022-10-28T13:17:19.711Z,193
2022-10-28T13:18:28.889Z,198
2022-10-28T13:19:38.059Z,170
2022-10-28T13:20:47.241Z,135
2022-10-28T13:21:56.418Z,151
2022-10-28T13:23:04.599Z,134
2022-10-28T13:24:13.775Z,136
2022-10-28T13:25:22.942Z,146
2022-10-28T13:26:32.112Z,142
2022-10-28T13:27:41.296Z,162
2022-10-28T13:28:50.462Z,182
2022-10-28T13:29:59.658Z,157
2022-10-28T13:31:08.795Z,163
2022-10-28T13:32:17.969Z,151
2022-10-28T13:33:27.142Z,151
2022-10-28T13:34:36.362Z,138
2022-10-28T13:35:45.487Z,150
2022-10-28T13:36:54.661Z,173
2022-10-28T13:38:02.853Z,159
2022-10-28T13:39:12.043Z,183
2022-10-28T13:40:21.193Z,145
2022-10-28T13:41:30.373Z,160
2022-10-28T13:42:39.570Z,163
2022-10-28T13:43:48.706Z,156
2022-10-28T13:44:57.877Z,170
2022-10-28T13:46:07.092Z,202
2022-10-28T13:47:16.238Z,196
2022-10-28T13:48:25.406Z,157
2022-10-28T13:49:34.570Z,147
2022-10-28T13:50:43.756Z,175
2022-10-28T13:51:52.913Z,174
2022-10-28T13:53:01.099Z,135
2022-10-28T13:54:10.271Z,153
2022-10-28T13:55:19.447Z,176
2022-10-28T13:56:28.683Z,192
2022-10-28T13:57:37.783Z,177
2022-10-28T13:58:46.953Z,181
2022-10-28T13:59:56.190Z,180
2022-10-28T14:01:05.304Z,167
2022-10-28T14:02:14.621Z,178
2022-10-28T14:03:23.676Z,159
2022-10-28T14:04:32.834Z,170
2022-10-28T14:05:42.005Z,199
2022-10-28T14:06:51.169Z,162
2022-10-28T14:07:59.376Z,176
2022-10-28T14:09:08.523Z,175
2022-10-28T14:10:17.703Z,182
2022-10-28T14:11:26.880Z,177
2022-10-28T14:12:36.042Z,200
2022-10-28T14:13:45.213Z,185
2022-10-28T14:14:54.380Z,184
2022-10-28T14:16:03.558Z,150
2022-10-28T14:18:21.913Z,156
2022-10-28T14:19:31.077Z,228
2022-10-28T14:20:40.253Z,183
2022-10-28T14:21:49.481Z,171
2022-10-28T14:22:57.641Z,163
2022-10-28T14:24:06.787Z,192
2022-10-28T14:25:15.952Z,184
2022-10-28T14:26:25.145Z,181
2022-10-28T14:27:34.301Z,166
2022-10-28T14:28:43.517Z,178
2022-10-28T14:29:52.639Z,180
2022-10-28T14:31:01.816Z,182
2022-10-28T14:32:10.989Z,182
2022-10-28T14:33:20.155Z,182
2022-10-28T14:34:29.334Z,185
2022-10-28T14:35:38.506Z,185
2022-10-28T14:36:47.675Z,152
2022-10-28T14:37:55.895Z,152
2022-10-28T14:39:04.085Z,152
2022-10-28T14:40:13.249Z,153
2022-10-28T14:41:22.491Z,152
2022-10-28T14:42:30.602Z,152
2022-10-28T14:43:39.771Z,164
2022-10-28T14:44:47.963Z,173
2022-10-28T14:45:57.132Z,179
2022-10-28T14:47:06.295Z,180
2022-10-28T14:48:15.511Z,181
2022-10-28T14:49:24.649Z,180
2022-10-28T14:50:33.820Z,180
2022-10-28T14:51:42.998Z,180
2022-10-28T14:52:52.161Z,181
2022-10-28T14:54:01.346Z,180
2022-10-28T14:55:10.506Z,181
2022-10-28T14:56:19.687Z,180
2022-10-28T14:57:28.851Z,211
2022-10-28T14:58:38.078Z,194
2022-10-28T14:59:46.217Z,194
2022-10-28T15:02:04.547Z,152
2022-10-28T15:03:13.793Z,178
2022-10-28T15:04:22.908Z,177
2022-10-28T15:05:32.072Z,177
2022-10-28T15:06:41.244Z,179
2022-10-28T15:07:50.431Z,179
2022-10-28T15:08:59.580Z,178
2022-10-28T15:10:08.858Z,168
2022-10-28T15:11:17.935Z,179
2022-10-28T15:12:27.196Z,179
2022-10-28T15:13:36.317Z,156
2022-10-28T15:14:45.449Z,161
2022-10-28T15:15:53.630Z,206
2022-10-28T15:17:02.812Z,208
2022-10-28T15:18:12.015Z,231
2022-10-28T15:19:21.151Z,199
2022-10-28T15:20:30.326Z,222
2022-10-28T15:21:39.535Z,199
2022-10-28T15:22:48.672Z,185
2022-10-28T15:23:57.843Z,165
2022-10-28T15:25:07.028Z,198
2022-10-28T15:26:16.211Z,194
2022-10-28T15:27:25.370Z,155
2022-10-28T15:28:34.540Z,168
2022-10-28T15:29:43.723Z,172
2022-10-28T15:30:51.906Z,177
2022-10-28T15:32:01.059Z,171
2022-10-28T15:33:10.242Z,138
2022-10-28T15:34:19.412Z,147
2022-10-28T15:35:28.603Z,161
2022-10-28T15:36:37.753Z,217
2022-10-28T15:37:46.954Z,215
2022-10-28T15:38:56.120Z,214
2022-10-28T15:40:05.280Z,154
2022-10-28T15:41:14.435Z,171
2022-10-28T15:42:23.707Z,184
2022-10-28T15:43:32.774Z,154
2022-10-28T15:44:41.961Z,177
2022-10-28T15:45:50.156Z,134
2022-10-28T15:46:59.360Z,204
2022-10-28T15:48:08.537Z,146
2022-10-28T15:49:17.657Z,143
2022-10-28T15:51:36.007Z,193
2022-10-28T15:52:45.216Z,148
2022-10-28T15:53:54.351Z,303
2022-10-28T15:55:03.538Z,199
2022-10-28T15:56:12.698Z,154
2022-10-28T15:57:21.863Z,165
2022-10-28T15:58:31.036Z,179
2022-10-28T15:59:40.210Z,167
2022-10-28T16:00:48.398Z,196
2022-10-28T16:01:57.569Z,144
2022-10-28T16:03:06.764Z,223